sensor_id;sensor_type;location;lat;lon;timestamp;temperature;humidity
19945;DHT22;10134;50.952;6.930;2023-05-10T00:02:08;15.10;99.90
19945;DHT22;10134;50.952;6.930;2023-05-10T00:04:35;15.00;99.90
19945;DHT22;10134;50.952;6.930;2023-05-10T00:07:03;15.10;99.90
19945;DHT22;10134;50.952;6.930;2023-05-10T00:09:30;15.00;99.90
19945;DHT22;10134;50.952;6.930;2023-05-10T00:11:57;15.00;99.90
19945;DHT22;10134;50.952;6.930;2023-05-10T00:14:25;15.00;99.90
19945;DHT22;10134;50.952;6.930;2023-05-10T00:16:52;15.00;99.90
19945;DHT22;10134;50.952;6.930;2023-05-10T00:19:20;15.00;99.90
19945;DHT22;10134;50.952;6.930;2023-05-10T00:21:47;15.10;99.90
19945;DHT22;10134;50.952;6.930;2023-05-10T00:24:14;15.00;99.90
19945;DHT22;10134;50.952;6.930;2023-05-10T00:26:42;15.00;99.90
19945;DHT22;10134;50.952;6.930;2023-05-10T00:29:09;15.10;99.90
19945;DHT22;10134;50.952;6.930;2023-05-10T00:31:36;15.00;99.90
19945;DHT22;10134;50.952;6.930;2023-05-10T00:34:04;15.10;99.90
19945;DHT22;10134;50.952;6.930;2023-05-10T00:36:31;15.10;99.90
19945;DHT22;10134;50.952;6.930;2023-05-10T00:38:59;15.00;99.90
19945;DHT22;10134;50.952;6.930;2023-05-10T00:41:26;15.10;99.90
19945;DHT22;10134;50.952;6.930;2023-05-10T00:43:54;15.10;99.90
19945;DHT22;10134;50.952;6.930;2023-05-10T00:46:23;15.10;99.90
19945;DHT22;10134;50.952;6.930;2023-05-10T00:48:52;15.10;99.90
19945;DHT22;10134;50.952;6.930;2023-05-10T00:51:19;15.10;99.90
19945;DHT22;10134;50.952;6.930;2023-05-10T00:53:47;15.00;99.90
19945;DHT22;10134;50.952;6.930;2023-05-10T00:56:15;15.10;99.90
19945;DHT22;10134;50.952;6.930;2023-05-10T00:58:43;15.10;99.90
19945;DHT22;10134;50.952;6.930;2023-05-10T01:01:10;15.10;99.90
19945;DHT22;10134;50.952;6.930;2023-05-10T01:03:39;15.10;99.90
19945;DHT22;10134;50.952;6.930;2023-05-10T01:06:07;15.10;99.90
19945;DHT22;10134;50.952;6.930;2023-05-10T01:08:34;15.10;99.90
19945;DHT22;10134;50.952;6.930;2023-05-10T01:11:01;15.00;99.90
19945;DHT22;10134;50.952;6.930;2023-05-10T01:13:38;15.10;99.90
19945;DHT22;10134;50.952;6.930;2023-05-10T01:16:08;15.00;99.90
19945;DHT22;10134;50.952;6.930;2023-05-10T01:18:40;15.00;99.90
19945;DHT22;10134;50.952;6.930;2023-05-10T01:21:22;15.10;99.90
19945;DHT22;10134;50.952;6.930;2023-05-10T01:35:55;15.10;99.90
19945;DHT22;10134;50.952;6.930;2023-05-10T01:41:04;15.00;99.90
19945;DHT22;10134;50.952;6.930;2023-05-10T01:43:47;15.00;99.90
19945;DHT22;10134;50.952;6.930;2023-05-10T01:46:20;15.10;99.90
19945;DHT22;10134;50.952;6.930;2023-05-10T01:48:53;15.00;99.90
19945;DHT22;10134;50.952;6.930;2023-05-10T01:51:27;15.00;99.90
19945;DHT22;10134;50.952;6.930;2023-05-10T01:54:01;15.10;99.90
19945;DHT22;10134;50.952;6.930;2023-05-10T01:56:31;15.10;99.90
19945;DHT22;10134;50.952;6.930;2023-05-10T01:59:00;15.10;99.90
19945;DHT22;10134;50.952;6.930;2023-05-10T02:01:30;15.10;99.90
19945;DHT22;10134;50.952;6.930;2023-05-10T02:03:59;15.00;99.90
19945;DHT22;10134;50.952;6.930;2023-05-10T02:06:27;15.10;99.90
19945;DHT22;10134;50.952;6.930;2023-05-10T02:08:55;15.10;99.90
19945;DHT22;10134;50.952;6.930;2023-05-10T02:11:24;15.00;99.90
19945;DHT22;10134;50.952;6.930;2023-05-10T02:13:53;14.80;99.90
19945;DHT22;10134;50.952;6.930;2023-05-10T02:16:28;14.80;99.90
19945;DHT22;10134;50.952;6.930;2023-05-10T02:19:01;14.90;99.90
19945;DHT22;10134;50.952;6.930;2023-05-10T02:21:29;14.80;99.90
19945;DHT22;10134;50.952;6.930;2023-05-10T02:23:58;14.90;99.90
19945;DHT22;10134;50.952;6.930;2023-05-10T02:26:28;14.90;99.90
19945;DHT22;10134;50.952;6.930;2023-05-10T02:28:57;14.90;99.90
19945;DHT22;10134;50.952;6.930;2023-05-10T02:31:25;14.90;99.90
19945;DHT22;10134;50.952;6.930;2023-05-10T02:33:53;14.90;99.90
19945;DHT22;10134;50.952;6.930;2023-05-10T02:36:21;14.90;99.90
19945;DHT22;10134;50.952;6.930;2023-05-10T02:38:51;14.90;99.90
19945;DHT22;10134;50.952;6.930;2023-05-10T02:41:23;15.00;99.90
19945;DHT22;10134;50.952;6.930;2023-05-10T02:43:53;15.00;99.90
19945;DHT22;10134;50.952;6.930;2023-05-10T02:46:23;15.00;99.90
19945;DHT22;10134;50.952;6.930;2023-05-10T02:48:51;15.00;99.90
19945;DHT22;10134;50.952;6.930;2023-05-10T02:51:19;14.90;99.90
19945;DHT22;10134;50.952;6.930;2023-05-10T02:53:49;15.00;99.90
19945;DHT22;10134;50.952;6.930;2023-05-10T02:56:29;15.00;99.90
19945;DHT22;10134;50.952;6.930;2023-05-10T02:58:58;15.00;99.90
19945;DHT22;10134;50.952;6.930;2023-05-10T03:01:26;15.00;99.90
19945;DHT22;10134;50.952;6.930;2023-05-10T03:03:53;15.00;99.90
19945;DHT22;10134;50.952;6.930;2023-05-10T03:06:21;15.00;99.90
19945;DHT22;10134;50.952;6.930;2023-05-10T03:08:48;15.00;99.90
19945;DHT22;10134;50.952;6.930;2023-05-10T03:16:45;15.00;99.90
19945;DHT22;10134;50.952;6.930;2023-05-10T03:19:27;15.00;99.90
19945;DHT22;10134;50.952;6.930;2023-05-10T03:21:59;14.90;99.90
19945;DHT22;10134;50.952;6.930;2023-05-10T03:24:35;14.80;99.90
19945;DHT22;10134;50.952;6.930;2023-05-10T03:27:03;14.80;99.90
19945;DHT22;10134;50.952;6.930;2023-05-10T03:29:32;14.80;99.90
19945;DHT22;10134;50.952;6.930;2023-05-10T03:32:00;14.80;99.90
19945;DHT22;10134;50.952;6.930;2023-05-10T03:34:30;14.80;99.90
19945;DHT22;10134;50.952;6.930;2023-05-10T03:36:58;14.80;99.90
19945;DHT22;10134;50.952;6.930;2023-05-10T03:39:29;14.90;99.90
19945;DHT22;10134;50.952;6.930;2023-05-10T03:41:58;14.90;99.90
19945;DHT22;10134;50.952;6.930;2023-05-10T03:44:26;14.90;99.90
19945;DHT22;10134;50.952;6.930;2023-05-10T03:46:53;14.90;99.90
19945;DHT22;10134;50.952;6.930;2023-05-10T03:49:21;14.90;99.90
19945;DHT22;10134;50.952;6.930;2023-05-10T03:51:48;14.90;99.90
19945;DHT22;10134;50.952;6.930;2023-05-10T03:54:15;15.00;99.90
19945;DHT22;10134;50.952;6.930;2023-05-10T03:56:43;15.00;99.90
19945;DHT22;10134;50.952;6.930;2023-05-10T03:59:10;15.00;99.90
19945;DHT22;10134;50.952;6.930;2023-05-10T04:01:41;14.90;99.90
19945;DHT22;10134;50.952;6.930;2023-05-10T04:04:08;14.90;99.90
19945;DHT22;10134;50.952;6.930;2023-05-10T04:06:37;15.00;99.90
19945;DHT22;10134;50.952;6.930;2023-05-10T04:09:04;15.00;99.90
19945;DHT22;10134;50.952;6.930;2023-05-10T04:11:32;15.00;99.90
19945;DHT22;10134;50.952;6.930;2023-05-10T04:13:59;15.00;99.90
19945;DHT22;10134;50.952;6.930;2023-05-10T04:16:27;15.00;99.90
19945;DHT22;10134;50.952;6.930;2023-05-10T04:18:54;15.00;99.90
19945;DHT22;10134;50.952;6.930;2023-05-10T04:21:21;15.00;99.90
19945;DHT22;10134;50.952;6.930;2023-05-10T04:23:49;15.00;99.90
19945;DHT22;10134;50.952;6.930;2023-05-10T04:26:16;15.00;99.90
19945;DHT22;10134;50.952;6.930;2023-05-10T04:28:43;15.00;99.90
19945;DHT22;10134;50.952;6.930;2023-05-10T04:31:10;14.90;99.90
19945;DHT22;10134;50.952;6.930;2023-05-10T04:33:38;14.90;99.90
19945;DHT22;10134;50.952;6.930;2023-05-10T04:36:06;14.90;99.90
19945;DHT22;10134;50.952;6.930;2023-05-10T04:38:33;14.80;99.90
19945;DHT22;10134;50.952;6.930;2023-05-10T04:41:08;14.80;99.90
19945;DHT22;10134;50.952;6.930;2023-05-10T04:43:36;14.80;99.90
19945;DHT22;10134;50.952;6.930;2023-05-10T04:46:05;14.80;99.90
19945;DHT22;10134;50.952;6.930;2023-05-10T04:48:33;14.80;99.90
19945;DHT22;10134;50.952;6.930;2023-05-10T04:51:00;14.80;99.90
19945;DHT22;10134;50.952;6.930;2023-05-10T04:53:28;14.80;99.90
19945;DHT22;10134;50.952;6.930;2023-05-10T04:55:55;14.80;99.90
19945;DHT22;10134;50.952;6.930;2023-05-10T04:58:22;14.80;99.90
19945;DHT22;10134;50.952;6.930;2023-05-10T05:00:50;14.90;99.90
19945;DHT22;10134;50.952;6.930;2023-05-10T05:03:17;14.80;99.90
19945;DHT22;10134;50.952;6.930;2023-05-10T05:05:44;14.80;99.90
19945;DHT22;10134;50.952;6.930;2023-05-10T05:08:12;14.70;99.90
19945;DHT22;10134;50.952;6.930;2023-05-10T05:10:40;14.70;99.90
19945;DHT22;10134;50.952;6.930;2023-05-10T05:13:07;14.70;99.90
19945;DHT22;10134;50.952;6.930;2023-05-10T05:15:34;14.70;99.90
19945;DHT22;10134;50.952;6.930;2023-05-10T05:18:02;14.70;99.90
19945;DHT22;10134;50.952;6.930;2023-05-10T05:20:32;14.70;99.90
19945;DHT22;10134;50.952;6.930;2023-05-10T05:23:01;14.70;99.90
19945;DHT22;10134;50.952;6.930;2023-05-10T05:25:28;14.70;99.90
19945;DHT22;10134;50.952;6.930;2023-05-10T05:27:55;14.70;99.90
19945;DHT22;10134;50.952;6.930;2023-05-10T05:30:23;14.70;99.90
19945;DHT22;10134;50.952;6.930;2023-05-10T05:32:50;14.70;99.90
19945;DHT22;10134;50.952;6.930;2023-05-10T05:35:18;14.70;99.90
19945;DHT22;10134;50.952;6.930;2023-05-10T05:37:45;14.70;99.90
19945;DHT22;10134;50.952;6.930;2023-05-10T05:40:13;14.70;99.90
19945;DHT22;10134;50.952;6.930;2023-05-10T05:42:41;14.80;99.90
19945;DHT22;10134;50.952;6.930;2023-05-10T05:45:08;14.90;99.90
19945;DHT22;10134;50.952;6.930;2023-05-10T05:47:40;14.80;99.90
19945;DHT22;10134;50.952;6.930;2023-05-10T05:50:07;14.80;99.90
19945;DHT22;10134;50.952;6.930;2023-05-10T05:52:35;14.90;99.90
19945;DHT22;10134;50.952;6.930;2023-05-10T05:55:03;15.00;99.90
19945;DHT22;10134;50.952;6.930;2023-05-10T05:57:30;15.00;99.90
19945;DHT22;10134;50.952;6.930;2023-05-10T05:59:57;15.10;99.90
19945;DHT22;10134;50.952;6.930;2023-05-10T06:02:25;15.20;99.90
19945;DHT22;10134;50.952;6.930;2023-05-10T06:04:52;15.20;99.90
19945;DHT22;10134;50.952;6.930;2023-05-10T06:07:19;15.20;99.90
19945;DHT22;10134;50.952;6.930;2023-05-10T06:09:47;15.20;99.90
19945;DHT22;10134;50.952;6.930;2023-05-10T06:12:14;15.20;99.90
19945;DHT22;10134;50.952;6.930;2023-05-10T06:14:42;15.30;99.90
19945;DHT22;10134;50.952;6.930;2023-05-10T06:17:09;15.30;99.90
19945;DHT22;10134;50.952;6.930;2023-05-10T06:19:36;15.30;99.90
19945;DHT22;10134;50.952;6.930;2023-05-10T06:22:10;15.30;99.90
19945;DHT22;10134;50.952;6.930;2023-05-10T06:24:40;15.30;99.90
19945;DHT22;10134;50.952;6.930;2023-05-10T06:27:07;15.30;99.90
19945;DHT22;10134;50.952;6.930;2023-05-10T06:29:34;15.30;99.90
19945;DHT22;10134;50.952;6.930;2023-05-10T06:32:02;15.30;99.90
19945;DHT22;10134;50.952;6.930;2023-05-10T06:34:29;15.30;99.90
19945;DHT22;10134;50.952;6.930;2023-05-10T06:36:57;15.30;99.90
19945;DHT22;10134;50.952;6.930;2023-05-10T06:39:24;15.30;99.90
19945;DHT22;10134;50.952;6.930;2023-05-10T06:41:52;15.10;99.90
19945;DHT22;10134;50.952;6.930;2023-05-10T06:44:19;15.10;99.90
19945;DHT22;10134;50.952;6.930;2023-05-10T06:46:46;15.10;99.90
19945;DHT22;10134;50.952;6.930;2023-05-10T06:49:14;15.10;99.90
19945;DHT22;10134;50.952;6.930;2023-05-10T06:51:41;15.10;99.90
19945;DHT22;10134;50.952;6.930;2023-05-10T06:54:09;15.10;99.90
19945;DHT22;10134;50.952;6.930;2023-05-10T06:56:36;15.10;99.90
19945;DHT22;10134;50.952;6.930;2023-05-10T06:59:03;15.10;99.90
19945;DHT22;10134;50.952;6.930;2023-05-10T07:01:31;15.00;99.90
19945;DHT22;10134;50.952;6.930;2023-05-10T07:03:58;15.10;99.90
19945;DHT22;10134;50.952;6.930;2023-05-10T07:06:25;15.00;99.90
19945;DHT22;10134;50.952;6.930;2023-05-10T07:09:00;15.10;99.90
19945;DHT22;10134;50.952;6.930;2023-05-10T07:11:28;15.10;99.90
19945;DHT22;10134;50.952;6.930;2023-05-10T07:13:55;15.20;99.90
19945;DHT22;10134;50.952;6.930;2023-05-10T07:16:22;15.20;99.90
19945;DHT22;10134;50.952;6.930;2023-05-10T07:18:50;15.20;99.90
19945;DHT22;10134;50.952;6.930;2023-05-10T07:21:17;15.30;99.90
19945;DHT22;10134;50.952;6.930;2023-05-10T07:23:45;15.30;99.90
19945;DHT22;10134;50.952;6.930;2023-05-10T07:26:12;15.30;99.90
19945;DHT22;10134;50.952;6.930;2023-05-10T07:28:40;15.40;99.90
19945;DHT22;10134;50.952;6.930;2023-05-10T07:31:07;15.40;99.90
19945;DHT22;10134;50.952;6.930;2023-05-10T07:33:34;15.40;99.90
19945;DHT22;10134;50.952;6.930;2023-05-10T07:36:02;15.40;99.90
19945;DHT22;10134;50.952;6.930;2023-05-10T07:38:29;15.40;99.90
19945;DHT22;10134;50.952;6.930;2023-05-10T07:40:57;15.30;99.90
19945;DHT22;10134;50.952;6.930;2023-05-10T07:43:24;15.30;99.90
19945;DHT22;10134;50.952;6.930;2023-05-10T07:45:51;15.30;99.90
19945;DHT22;10134;50.952;6.930;2023-05-10T07:48:22;15.40;99.90
19945;DHT22;10134;50.952;6.930;2023-05-10T07:50:49;15.40;99.90
19945;DHT22;10134;50.952;6.930;2023-05-10T07:53:16;15.40;99.90
19945;DHT22;10134;50.952;6.930;2023-05-10T07:55:50;15.40;99.90
19945;DHT22;10134;50.952;6.930;2023-05-10T07:58:18;15.40;99.90
19945;DHT22;10134;50.952;6.930;2023-05-10T08:00:46;15.40;99.90
19945;DHT22;10134;50.952;6.930;2023-05-10T08:03:13;15.40;99.90
19945;DHT22;10134;50.952;6.930;2023-05-10T08:05:41;15.40;99.90
19945;DHT22;10134;50.952;6.930;2023-05-10T08:08:08;15.40;99.90
19945;DHT22;10134;50.952;6.930;2023-05-10T08:10:36;15.40;99.90
19945;DHT22;10134;50.952;6.930;2023-05-10T08:13:03;15.40;99.90
19945;DHT22;10134;50.952;6.930;2023-05-10T08:15:30;15.40;99.90
19945;DHT22;10134;50.952;6.930;2023-05-10T08:17:57;15.50;99.90
19945;DHT22;10134;50.952;6.930;2023-05-10T08:20:25;15.50;99.90
19945;DHT22;10134;50.952;6.930;2023-05-10T08:22:52;15.50;99.90
19945;DHT22;10134;50.952;6.930;2023-05-10T08:25:20;15.60;99.90
19945;DHT22;10134;50.952;6.930;2023-05-10T08:27:47;15.60;99.90
19945;DHT22;10134;50.952;6.930;2023-05-10T08:30:15;15.60;99.90
19945;DHT22;10134;50.952;6.930;2023-05-10T08:32:42;15.50;99.90
19945;DHT22;10134;50.952;6.930;2023-05-10T08:35:09;15.50;99.90
19945;DHT22;10134;50.952;6.930;2023-05-10T08:37:36;15.50;99.90
19945;DHT22;10134;50.952;6.930;2023-05-10T08:40:04;15.60;99.90
19945;DHT22;10134;50.952;6.930;2023-05-10T08:42:34;15.50;99.90
19945;DHT22;10134;50.952;6.930;2023-05-10T08:45:03;15.50;99.90
19945;DHT22;10134;50.952;6.930;2023-05-10T08:47:31;15.50;99.90
19945;DHT22;10134;50.952;6.930;2023-05-10T08:49:59;15.50;99.90
19945;DHT22;10134;50.952;6.930;2023-05-10T08:52:28;15.70;99.90
19945;DHT22;10134;50.952;6.930;2023-05-10T08:54:56;15.70;99.90
19945;DHT22;10134;50.952;6.930;2023-05-10T08:57:24;15.80;99.90
19945;DHT22;10134;50.952;6.930;2023-05-10T08:59:51;15.90;99.90
19945;DHT22;10134;50.952;6.930;2023-05-10T09:02:20;16.00;99.90
19945;DHT22;10134;50.952;6.930;2023-05-10T09:04:48;15.90;99.90
19945;DHT22;10134;50.952;6.930;2023-05-10T09:07:16;16.10;99.90
19945;DHT22;10134;50.952;6.930;2023-05-10T09:09:44;16.10;99.90
19945;DHT22;10134;50.952;6.930;2023-05-10T09:12:13;16.10;99.90
19945;DHT22;10134;50.952;6.930;2023-05-10T09:14:44;16.10;99.90
19945;DHT22;10134;50.952;6.930;2023-05-10T09:17:11;16.20;99.90
19945;DHT22;10134;50.952;6.930;2023-05-10T09:19:39;16.20;99.90
19945;DHT22;10134;50.952;6.930;2023-05-10T09:22:07;16.20;99.90
19945;DHT22;10134;50.952;6.930;2023-05-10T09:24:34;16.30;99.90
19945;DHT22;10134;50.952;6.930;2023-05-10T09:27:01;16.40;99.90
19945;DHT22;10134;50.952;6.930;2023-05-10T09:29:49;16.40;99.90
19945;DHT22;10134;50.952;6.930;2023-05-10T09:32:21;16.50;99.90
19945;DHT22;10134;50.952;6.930;2023-05-10T09:34:49;16.60;99.90
19945;DHT22;10134;50.952;6.930;2023-05-10T09:37:17;16.60;99.90
19945;DHT22;10134;50.952;6.930;2023-05-10T09:39:44;16.50;99.90
19945;DHT22;10134;50.952;6.930;2023-05-10T09:42:11;16.40;99.90
19945;DHT22;10134;50.952;6.930;2023-05-10T09:44:38;16.40;99.90
19945;DHT22;10134;50.952;6.930;2023-05-10T09:47:07;16.40;99.90
19945;DHT22;10134;50.952;6.930;2023-05-10T09:49:35;16.40;99.90
19945;DHT22;10134;50.952;6.930;2023-05-10T09:52:04;16.30;99.90
19945;DHT22;10134;50.952;6.930;2023-05-10T09:54:32;16.30;99.90
19945;DHT22;10134;50.952;6.930;2023-05-10T09:57:00;16.40;99.90
19945;DHT22;10134;50.952;6.930;2023-05-10T09:59:28;16.40;99.90
19945;DHT22;10134;50.952;6.930;2023-05-10T10:01:57;16.30;99.90
19945;DHT22;10134;50.952;6.930;2023-05-10T10:04:25;16.30;99.90
19945;DHT22;10134;50.952;6.930;2023-05-10T10:07:01;16.50;99.90
19945;DHT22;10134;50.952;6.930;2023-05-10T10:09:29;16.50;99.90
19945;DHT22;10134;50.952;6.930;2023-05-10T10:11:56;16.70;99.90
19945;DHT22;10134;50.952;6.930;2023-05-10T10:14:24;17.00;99.90
19945;DHT22;10134;50.952;6.930;2023-05-10T10:16:52;17.10;99.90
19945;DHT22;10134;50.952;6.930;2023-05-10T10:19:34;17.30;99.90
19945;DHT22;10134;50.952;6.930;2023-05-10T10:22:03;17.50;99.90
19945;DHT22;10134;50.952;6.930;2023-05-10T10:24:31;17.70;99.90
19945;DHT22;10134;50.952;6.930;2023-05-10T10:34:47;18.00;99.90
19945;DHT22;10134;50.952;6.930;2023-05-10T10:37:15;18.10;99.90
19945;DHT22;10134;50.952;6.930;2023-05-10T10:39:42;18.20;99.90
19945;DHT22;10134;50.952;6.930;2023-05-10T10:42:10;18.30;99.90
19945;DHT22;10134;50.952;6.930;2023-05-10T10:44:37;18.30;99.90
19945;DHT22;10134;50.952;6.930;2023-05-10T10:52:39;18.30;99.90
19945;DHT22;10134;50.952;6.930;2023-05-10T10:55:33;18.30;99.90
19945;DHT22;10134;50.952;6.930;2023-05-10T10:58:00;18.40;99.90
19945;DHT22;10134;50.952;6.930;2023-05-10T11:03:11;18.60;99.90
19945;DHT22;10134;50.952;6.930;2023-05-10T11:05:42;18.70;99.90
19945;DHT22;10134;50.952;6.930;2023-05-10T11:10:38;18.90;99.90
19945;DHT22;10134;50.952;6.930;2023-05-10T11:13:09;19.10;99.90
19945;DHT22;10134;50.952;6.930;2023-05-10T11:15:39;19.10;99.90
19945;DHT22;10134;50.952;6.930;2023-05-10T11:18:29;19.10;99.90
19945;DHT22;10134;50.952;6.930;2023-05-10T11:21:01;19.10;99.90
19945;DHT22;10134;50.952;6.930;2023-05-10T11:26:08;19.20;99.90
19945;DHT22;10134;50.952;6.930;2023-05-10T11:28:46;19.20;99.90
19945;DHT22;10134;50.952;6.930;2023-05-10T11:31:18;19.30;99.90
19945;DHT22;10134;50.952;6.930;2023-05-10T11:33:46;19.30;99.90
19945;DHT22;10134;50.952;6.930;2023-05-10T11:36:16;19.30;99.90
19945;DHT22;10134;50.952;6.930;2023-05-10T11:38:44;19.30;99.90
19945;DHT22;10134;50.952;6.930;2023-05-10T11:41:12;19.20;99.90
19945;DHT22;10134;50.952;6.930;2023-05-10T11:43:40;19.10;99.90
19945;DHT22;10134;50.952;6.930;2023-05-10T11:46:12;19.10;99.90
19945;DHT22;10134;50.952;6.930;2023-05-10T11:48:41;19.10;99.90
19945;DHT22;10134;50.952;6.930;2023-05-10T11:51:09;19.10;99.90
19945;DHT22;10134;50.952;6.930;2023-05-10T11:53:37;19.10;99.90
19945;DHT22;10134;50.952;6.930;2023-05-10T11:56:06;18.90;99.90
19945;DHT22;10134;50.952;6.930;2023-05-10T11:58:34;18.90;99.90
19945;DHT22;10134;50.952;6.930;2023-05-10T12:01:03;19.00;99.90
19945;DHT22;10134;50.952;6.930;2023-05-10T12:03:31;19.10;99.90
19945;DHT22;10134;50.952;6.930;2023-05-10T12:05:59;19.30;99.90
19945;DHT22;10134;50.952;6.930;2023-05-10T12:08:29;19.30;99.90
19945;DHT22;10134;50.952;6.930;2023-05-10T12:11:07;19.20;99.90
19945;DHT22;10134;50.952;6.930;2023-05-10T12:13:39;19.30;99.90
19945;DHT22;10134;50.952;6.930;2023-05-10T12:16:15;19.20;99.90
19945;DHT22;10134;50.952;6.930;2023-05-10T12:18:43;19.20;99.90
19945;DHT22;10134;50.952;6.930;2023-05-10T12:21:11;19.40;99.90
19945;DHT22;10134;50.952;6.930;2023-05-10T12:23:39;19.50;99.90
19945;DHT22;10134;50.952;6.930;2023-05-10T12:26:09;19.60;99.90
19945;DHT22;10134;50.952;6.930;2023-05-10T12:28:37;19.70;99.90
19945;DHT22;10134;50.952;6.930;2023-05-10T12:31:06;19.80;99.90
19945;DHT22;10134;50.952;6.930;2023-05-10T12:33:42;19.90;99.90
19945;DHT22;10134;50.952;6.930;2023-05-10T12:36:11;19.90;99.90
19945;DHT22;10134;50.952;6.930;2023-05-10T12:38:40;19.90;99.90
19945;DHT22;10134;50.952;6.930;2023-05-10T12:41:19;20.00;99.90
19945;DHT22;10134;50.952;6.930;2023-05-10T12:43:48;20.00;99.90
19945;DHT22;10134;50.952;6.930;2023-05-10T12:46:17;19.90;99.90
19945;DHT22;10134;50.952;6.930;2023-05-10T12:48:46;20.00;99.90
19945;DHT22;10134;50.952;6.930;2023-05-10T12:51:21;20.00;99.90
19945;DHT22;10134;50.952;6.930;2023-05-10T12:53:49;20.20;99.90
19945;DHT22;10134;50.952;6.930;2023-05-10T12:56:16;20.40;99.90
19945;DHT22;10134;50.952;6.930;2023-05-10T12:58:44;20.50;99.90
19945;DHT22;10134;50.952;6.930;2023-05-10T13:01:15;20.50;99.90
19945;DHT22;10134;50.952;6.930;2023-05-10T13:03:42;20.60;99.90
19945;DHT22;10134;50.952;6.930;2023-05-10T13:06:13;20.70;99.90
19945;DHT22;10134;50.952;6.930;2023-05-10T13:08:40;20.90;99.90
19945;DHT22;10134;50.952;6.930;2023-05-10T13:11:08;20.90;99.90
19945;DHT22;10134;50.952;6.930;2023-05-10T13:13:35;20.80;99.90
19945;DHT22;10134;50.952;6.930;2023-05-10T13:16:03;20.90;99.90
19945;DHT22;10134;50.952;6.930;2023-05-10T13:18:30;20.90;99.90
19945;DHT22;10134;50.952;6.930;2023-05-10T13:20:57;20.80;99.90
19945;DHT22;10134;50.952;6.930;2023-05-10T13:23:24;20.70;99.90
19945;DHT22;10134;50.952;6.930;2023-05-10T13:25:52;20.70;99.90
19945;DHT22;10134;50.952;6.930;2023-05-10T13:28:19;20.60;99.90
19945;DHT22;10134;50.952;6.930;2023-05-10T13:30:46;20.60;99.90
19945;DHT22;10134;50.952;6.930;2023-05-10T13:33:14;20.60;99.90
19945;DHT22;10134;50.952;6.930;2023-05-10T13:35:41;20.60;99.90
19945;DHT22;10134;50.952;6.930;2023-05-10T13:38:08;20.30;99.90
19945;DHT22;10134;50.952;6.930;2023-05-10T13:40:36;20.50;99.90
19945;DHT22;10134;50.952;6.930;2023-05-10T13:43:03;20.50;99.90
19945;DHT22;10134;50.952;6.930;2023-05-10T13:45:30;20.50;99.90
19945;DHT22;10134;50.952;6.930;2023-05-10T13:47:58;20.70;99.90
19945;DHT22;10134;50.952;6.930;2023-05-10T13:50:25;21.00;99.90
19945;DHT22;10134;50.952;6.930;2023-05-10T13:52:53;21.10;99.90
19945;DHT22;10134;50.952;6.930;2023-05-10T13:55:20;21.20;99.90
19945;DHT22;10134;50.952;6.930;2023-05-10T13:58:04;21.40;99.90
19945;DHT22;10134;50.952;6.930;2023-05-10T14:00:32;21.50;99.90
19945;DHT22;10134;50.952;6.930;2023-05-10T14:02:59;21.60;99.90
19945;DHT22;10134;50.952;6.930;2023-05-10T14:05:27;21.70;99.90
19945;DHT22;10134;50.952;6.930;2023-05-10T14:07:54;21.90;99.90
19945;DHT22;10134;50.952;6.930;2023-05-10T14:10:24;22.00;99.50
19945;DHT22;10134;50.952;6.930;2023-05-10T14:12:51;22.10;99.50
19945;DHT22;10134;50.952;6.930;2023-05-10T14:15:19;22.20;99.10
19945;DHT22;10134;50.952;6.930;2023-05-10T14:17:46;22.20;98.90
19945;DHT22;10134;50.952;6.930;2023-05-10T14:20:13;22.10;98.00
19945;DHT22;10134;50.952;6.930;2023-05-10T14:22:42;22.00;97.60
19945;DHT22;10134;50.952;6.930;2023-05-10T14:25:09;22.20;97.10
19945;DHT22;10134;50.952;6.930;2023-05-10T14:27:36;22.80;96.80
19945;DHT22;10134;50.952;6.930;2023-05-10T14:30:04;23.20;95.80
19945;DHT22;10134;50.952;6.930;2023-05-10T14:32:31;23.10;92.90
19945;DHT22;10134;50.952;6.930;2023-05-10T14:34:59;23.40;94.00
19945;DHT22;10134;50.952;6.930;2023-05-10T14:37:26;23.50;93.70
19945;DHT22;10134;50.952;6.930;2023-05-10T14:39:54;23.50;93.80
19945;DHT22;10134;50.952;6.930;2023-05-10T14:42:21;23.30;93.00
19945;DHT22;10134;50.952;6.930;2023-05-10T14:44:48;23.00;92.40
19945;DHT22;10134;50.952;6.930;2023-05-10T14:47:15;22.40;93.00
19945;DHT22;10134;50.952;6.930;2023-05-10T14:49:43;22.10;93.20
19945;DHT22;10134;50.952;6.930;2023-05-10T14:52:10;21.90;94.20
19945;DHT22;10134;50.952;6.930;2023-05-10T14:54:39;21.60;94.40
19945;DHT22;10134;50.952;6.930;2023-05-10T14:57:07;21.50;95.70
19945;DHT22;10134;50.952;6.930;2023-05-10T14:59:34;21.30;95.80
19945;DHT22;10134;50.952;6.930;2023-05-10T15:02:02;21.30;96.20
19945;DHT22;10134;50.952;6.930;2023-05-10T15:04:30;21.60;96.80
19945;DHT22;10134;50.952;6.930;2023-05-10T15:06:58;22.10;96.90
19945;DHT22;10134;50.952;6.930;2023-05-10T15:09:26;22.20;96.50
19945;DHT22;10134;50.952;6.930;2023-05-10T15:11:55;22.20;95.40
19945;DHT22;10134;50.952;6.930;2023-05-10T15:14:23;21.90;95.20
19945;DHT22;10134;50.952;6.930;2023-05-10T15:16:50;21.70;96.10
19945;DHT22;10134;50.952;6.930;2023-05-10T15:19:17;21.40;96.40
19945;DHT22;10134;50.952;6.930;2023-05-10T15:21:46;21.10;96.40
19945;DHT22;10134;50.952;6.930;2023-05-10T15:24:14;20.90;96.80
19945;DHT22;10134;50.952;6.930;2023-05-10T15:26:41;20.80;97.20
19945;DHT22;10134;50.952;6.930;2023-05-10T15:29:08;20.70;97.20
19945;DHT22;10134;50.952;6.930;2023-05-10T15:31:36;20.70;97.40
19945;DHT22;10134;50.952;6.930;2023-05-10T15:34:07;20.90;97.50
19945;DHT22;10134;50.952;6.930;2023-05-10T15:36:34;21.40;97.20
19945;DHT22;10134;50.952;6.930;2023-05-10T15:39:02;21.80;96.30
19945;DHT22;10134;50.952;6.930;2023-05-10T15:41:30;22.10;95.90
19945;DHT22;10134;50.952;6.930;2023-05-10T15:43:58;22.50;95.50
19945;DHT22;10134;50.952;6.930;2023-05-10T15:46:28;22.50;94.90
19945;DHT22;10134;50.952;6.930;2023-05-10T15:48:57;22.40;94.70
19945;DHT22;10134;50.952;6.930;2023-05-10T15:51:25;22.40;95.00
19945;DHT22;10134;50.952;6.930;2023-05-10T15:53:53;22.40;95.10
19945;DHT22;10134;50.952;6.930;2023-05-10T15:56:33;22.60;94.70
19945;DHT22;10134;50.952;6.930;2023-05-10T15:59:01;22.80;93.80
19945;DHT22;10134;50.952;6.930;2023-05-10T16:01:28;23.00;92.90
19945;DHT22;10134;50.952;6.930;2023-05-10T16:03:57;23.10;92.80
19945;DHT22;10134;50.952;6.930;2023-05-10T16:06:24;23.50;93.50
19945;DHT22;10134;50.952;6.930;2023-05-10T16:08:51;23.80;91.10
19945;DHT22;10134;50.952;6.930;2023-05-10T16:11:20;23.80;91.10
19945;DHT22;10134;50.952;6.930;2023-05-10T16:13:48;23.80;91.20
19945;DHT22;10134;50.952;6.930;2023-05-10T16:16:15;24.00;91.10
19945;DHT22;10134;50.952;6.930;2023-05-10T16:18:43;24.10;91.10
19945;DHT22;10134;50.952;6.930;2023-05-10T16:21:11;24.20;91.00